• pl
  • eng

Awiacja
WIADOMOŚCI
ostatnia aktualizacja: 06.03.2019 14:41
Szanowni Państwo,

uprzejmie informujemy, że z dniem 01.01.2019 roku z obszaru MOLC zostało wyłączone BPM we Wrocławiu. Jego zadania zostały przejęte przez BPM w Krakowie.

Komunikaty METAR z lotnisk wojskowych. 12:01 24.03.2019

METAR EPCE 241130Z 26010KT 9999 FEW026 BKN137 07/00
Q1022 RMK 065 064 5/1=

METAR EPDA 241130Z 25007KT 160V310 9999 BKN008 BKN151 06/03
Q1024 RMK 056 086 7/5=

METAR EPDE 241130Z 28010KT CAVOK 10/M04 Q1022 RMK 104 035 5/5=

METAR EPIR 241130Z NIL=

METAR EPKS 241130Z 30007KT CAVOK 11/M02 Q1024 RMK 106 040 3/3=

METAR EPLK 241130Z NIL=

METAR EPLY 241130Z NIL=

METAR EPMB 241130Z 32007KT CAVOK 09/M00 Q1023 RMK 086 053
7/7=

METAR EPMI 241130Z NIL=

METAR EPMM 241130Z 29010KT 240V340 CAVOK 09/M02 Q1022 RMK 092 045
5/5=

METAR EPNA 241130Z NIL=

METAR EPOK 241130Z 30010KT 9999 BKN149 07/01
Q1022 RMK 074 062 7/7=

METAR EPPR 241130Z NIL=

METAR EPPW 241130Z 27008KT CAVOK 11/M03 Q1023 RMK 107 037 1/1=

METAR EPRA 241130Z NIL=

METAR EPSN 241130Z 30009KT 9999 BKN110 06/01 Q1024 RMK 063 071 6/6=

METAR EPTM 241130Z NIL=
 METAR EPPW
Lokalizacja:EPPW Powidz
Czas:11:30 UTC
Średni kierunek wiatru:270 °
Średnia prędkość wiatru:8 węzłów
CAVOK:Widzialność 10 km i więcej, zjawisko: NIL, zachmurzenie: NSC
Temperatura powietrza:11 °C
Temperatura punktu rosy:-3 °C
Ciśnienie QNH:1023 hPa
Dokładna temperatura powietrza:10,7 °C
Dokładna wilgotność względna:37 %
Zachmurzenie przez wszystkie piętra chmur:1/8
Zachmurzenie przez chmury niskie:1/8
Awiacja.imgw.pl jest pogodowym serwisem informacyjnym
Instytutu Meteorologii i Gospodarki Wodnej Państwowego Instytutu Badawczego.
Copyright IMGW PIB 2009-2011© Wszelkie prawa zastrzeżone.